Anaheim, California
Current Conditions -  °F | °C
As of 5:53 PM on Monday 24 Nov 2014 (Local Time) from KFUL Reporting Station
Clear Clear  
Wind Chill: 75°   Ceiling: Unl
Heat Index: 75°   Visibility: 10mi
Dew Point: 11°   Wind: 5mph
Humidity: 9%   Direction: NA
Pressure: 30.21"   Gusts: NA
Location:  33.83°N, 117.91°W
Report Text: KFUL 250153Z VRB04KT 10SM CLR 24/M12 A3021 RMK AO2 SLP227 T02391117
Loading
Personal Weather Stations






























Interactive Weather Map New forecast layout! Learn more

10-Day Weather Forecast

Advertisements
Track Severe Weather on mobile